Time;durP1;ratioP1;P1;durP2;ratioP2;P2;SDS_P1;SDS_P2;PMS_P1;PMS_P2;Temp;Humidity;BMP_temperature;BMP_pressure;BME280_temperature;BME280_humidity;BME280_pressure;Samples;Min_cycle;Max_cycle;Signal;HPM_P1;HPM_P2
2022/07/10 00:01:01;;;;;;;1.85;0.70;;;;;21.30;102632.00;;;;5028892;28;20212;-81
2022/07/10 00:03:29;;;;;;;1.73;0.85;;;;;21.30;102622.00;;;;5028143;28;20203;-81
2022/07/10 00:05:56;;;;;;;8.50;1.05;;;;;21.30;102626.00;;;;5028664;28;20203;-80
2022/07/10 00:08:25;;;;;;;2.20;0.80;;;;;21.30;102622.00;;;;5040883;28;20231;-81
2022/07/10 00:10:52;;;;;;;2.40;0.73;;;;;21.30;102607.00;;;;5048382;28;20188;-80
2022/07/10 00:13:19;;;;;;;1.33;0.50;;;;;21.30;102613.00;;;;5033821;28;20215;-82
2022/07/10 00:15:47;;;;;;;3.75;0.63;;;;;21.30;102604.00;;;;5028740;28;20204;-81
2022/07/10 00:18:14;;;;;;;2.53;0.70;;;;;21.30;102604.00;;;;5028502;28;20204;-81
2022/07/10 00:20:48;;;;;;;1.60;0.50;;;;;21.20;102606.00;;;;5035269;28;20191;-81
2022/07/10 00:23:15;;;;;;;2.80;0.60;;;;;21.20;102610.00;;;;5047315;28;20685;-81
2022/07/10 00:25:44;;;;;;;1.40;0.55;;;;;21.20;102606.00;;;;5048290;28;20203;-81
2022/07/10 00:28:11;;;;;;;1.70;0.60;;;;;21.20;102611.00;;;;5045350;28;20231;-81
2022/07/10 00:30:38;;;;;;;2.60;0.57;;;;;21.10;102604.00;;;;5045557;28;20243;-81
2022/07/10 00:33:06;;;;;;;1.80;0.75;;;;;21.10;102599.00;;;;5028196;28;20201;-81
2022/07/10 00:35:33;;;;;;;2.30;0.70;;;;;21.10;102604.00;;;;5027817;28;20215;-81
2022/07/10 00:38:00;;;;;;;2.08;0.47;;;;;21.10;102605.00;;;;5027303;28;20683;-81
2022/07/10 00:40:28;;;;;;;1.98;0.70;;;;;21.00;102601.00;;;;5028314;28;20203;-81
2022/07/10 00:42:56;;;;;;;3.30;0.80;;;;;21.00;102608.00;;;;5028717;28;20205;-81
2022/07/10 00:45:23;;;;;;;2.80;0.63;;;;;21.00;102606.00;;;;5027841;28;20203;-81
2022/07/10 00:47:51;;;;;;;2.00;0.60;;;;;21.00;102609.00;;;;5041104;28;20231;-81
2022/07/10 00:50:18;;;;;;;2.88;0.60;;;;;20.90;102599.00;;;;5028724;28;20196;-81
2022/07/10 00:52:47;;;;;;;4.22;1.10;;;;;20.90;102613.00;;;;5028334;28;20215;-81
2022/07/10 00:55:15;;;;;;;4.32;0.60;;;;;20.90;102601.00;;;;5028173;28;20586;-81
2022/07/10 00:57:42;;;;;;;2.15;0.60;;;;;20.80;102607.00;;;;5027668;28;20211;-81
2022/07/10 01:00:13;;;;;;;0.88;0.47;;;;;20.70;102597.00;;;;5027558;28;20215;-81
2022/07/10 01:02:44;;;;;;;0.98;0.55;;;;;20.70;102605.00;;;;5027871;28;20200;-81
2022/07/10 01:05:12;;;;;;;2.55;0.68;;;;;20.70;102600.00;;;;5027252;28;20212;-82
2022/07/10 01:07:39;;;;;;;3.55;0.60;;;;;20.70;102596.00;;;;5027398;28;20767;-81
2022/07/10 01:10:07;;;;;;;2.85;0.40;;;;;20.70;102594.00;;;;5026897;28;20197;-81
2022/07/10 01:12:35;;;;;;;1.85;0.68;;;;;20.60;102588.00;;;;5027408;28;20196;-81
2022/07/10 01:15:03;;;;;;;0.82;0.38;;;;;20.60;102589.00;;;;5027533;28;20200;-81
2022/07/10 01:17:33;;;;;;;1.20;0.43;;;;;20.60;102586.00;;;;5038261;28;20215;-81
2022/07/10 01:20:06;;;;;;;2.22;0.75;;;;;20.50;102580.00;;;;5026997;28;20208;-81
2022/07/10 01:22:35;;;;;;;1.77;0.80;;;;;20.60;102581.00;;;;5027561;28;20686;-81
2022/07/10 01:25:02;;;;;;;4.38;1.10;;;;;20.60;102577.00;;;;5027167;28;20207;-81
2022/07/10 01:27:29;;;;;;;3.55;1.42;;;;;20.50;102581.00;;;;5027026;28;20212;-82
2022/07/10 01:29:57;;;;;;;1.63;0.82;;;;;20.50;102577.00;;;;5027400;28;20199;-81
2022/07/10 01:32:24;;;;;;;3.47;0.77;;;;;20.50;102578.00;;;;5027356;28;20197;-82
2022/07/10 01:34:51;;;;;;;2.30;1.10;;;;;20.50;102572.00;;;;5029445;28;20200;-81
2022/07/10 01:37:18;;;;;;;1.70;0.90;;;;;20.50;102574.00;;;;5030618;28;20588;-81
2022/07/10 01:39:47;;;;;;;2.72;0.55;;;;;20.50;102566.00;;;;5030545;28;20605;-81
2022/07/10 01:42:14;;;;;;;1.33;0.50;;;;;20.50;102574.00;;;;5043885;28;20669;-81
2022/07/10 01:44:42;;;;;;;1.23;0.57;;;;;20.60;102576.00;;;;5050682;28;20203;-81
2022/07/10 01:47:09;;;;;;;1.30;0.52;;;;;20.60;102578.00;;;;5045665;28;20276;-81
2022/07/10 01:49:38;;;;;;;2.67;0.50;;;;;20.60;102567.00;;;;5033857;28;20260;-82
2022/07/10 01:52:06;;;;;;;0.70;0.40;;;;;20.60;102572.00;;;;5030559;28;20200;-82
2022/07/10 01:54:33;;;;;;;2.25;0.70;;;;;20.60;102574.00;;;;5038088;28;20207;-81
2022/07/10 01:57:02;;;;;;;3.08;0.73;;;;;20.50;102567.00;;;;5050101;28;20242;-81
2022/07/10 01:59:29;;;;;;;3.22;0.98;;;;;20.60;102570.00;;;;5049941;28;20561;-81
2022/07/10 02:01:57;;;;;;;1.48;0.70;;;;;20.60;102561.00;;;;5050124;28;20196;-81
2022/07/10 02:04:41;;;;;;;3.45;0.82;;;;;20.60;102563.00;;;;5045825;28;20196;-81
2022/07/10 02:07:09;;;;;;;1.15;0.60;;;;;20.50;102561.00;;;;5032455;28;20266;-81
2022/07/10 02:09:36;;;;;;;1.85;0.60;;;;;20.50;102561.00;;;;5039125;28;20301;-80
2022/07/10 02:12:06;;;;;;;0.57;0.38;;;;;20.50;102559.00;;;;5030398;28;20771;-81
2022/07/10 02:14:33;;;;;;;1.17;0.30;;;;;20.50;102559.00;;;;5030095;28;20215;-81
2022/07/10 02:17:01;;;;;;;3.05;0.63;;;;;20.60;102554.00;;;;5029559;28;20211;-81
2022/07/10 02:19:28;;;;;;;1.50;0.52;;;;;20.50;102553.00;;;;5029846;28;20578;-81
2022/07/10 02:21:56;;;;;;;1.60;0.60;;;;;20.50;102566.00;;;;5030047;28;20211;-80
2022/07/10 02:24:23;;;;;;;1.27;0.52;;;;;20.50;102555.00;;;;5030235;28;20204;-81
2022/07/10 02:26:50;;;;;;;3.47;0.77;;;;;20.50;102560.00;;;;5029861;28;20203;-81
2022/07/10 02:29:19;;;;;;;1.10;0.60;;;;;20.50;102547.00;;;;5030949;28;20232;-81
2022/07/10 02:31:47;;;;;;;2.30;0.50;;;;;20.60;102550.00;;;;5030257;28;20201;-81
2022/07/10 02:34:14;;;;;;;3.15;0.68;;;;;20.60;102543.00;;;;5030414;28;20204;-81
2022/07/10 02:36:42;;;;;;;1.35;0.45;;;;;20.60;102551.00;;;;5040111;28;20600;-81
2022/07/10 02:39:10;;;;;;;0.75;0.43;;;;;20.60;102543.00;;;;5040882;28;20665;-81
2022/07/10 02:41:37;;;;;;;1.38;0.60;;;;;20.60;102537.00;;;;5029539;28;20209;-80
2022/07/10 02:44:05;;;;;;;2.83;0.80;;;;;20.60;102538.00;;;;5039091;28;20207;-81
2022/07/10 02:46:33;;;;;;;0.90;0.38;;;;;20.60;102543.00;;;;5038195;28;20196;-81
2022/07/10 02:49:01;;;;;;;1.27;0.75;;;;;20.60;102536.00;;;;5029318;28;20693;-80
2022/07/10 02:51:29;;;;;;;2.60;0.50;;;;;20.60;102540.00;;;;5029664;28;20200;-80
2022/07/10 02:53:56;;;;;;;2.13;0.50;;;;;20.70;102537.00;;;;5030124;28;20650;-81
2022/07/10 02:56:23;;;;;;;1.42;0.40;;;;;20.70;102531.00;;;;5029315;28;20228;-81
2022/07/10 02:58:51;;;;;;;2.60;0.47;;;;;20.70;102532.00;;;;5035889;28;20199;-80
2022/07/10 03:01:18;;;;;;;2.95;0.70;;;;;20.70;102531.00;;;;5049387;28;20207;-81
2022/07/10 03:03:47;;;;;;;2.67;1.10;;;;;20.70;102531.00;;;;5032375;28;20218;-81
2022/07/10 03:06:14;;;;;;;3.58;0.52;;;;;20.70;102538.00;;;;5029228;28;20675;-80
2022/07/10 03:08:41;;;;;;;9.98;1.88;;;;;20.70;102543.00;;;;5039325;28;20250;-81
2022/07/10 03:11:09;;;;;;;3.28;0.50;;;;;20.70;102544.00;;;;5049409;28;20282;-81
2022/07/10 03:13:36;;;;;;;1.48;0.45;;;;;20.70;102546.00;;;;5047443;28;20207;-81
2022/07/10 03:16:03;;;;;;;1.08;0.50;;;;;20.80;102539.00;;;;5029565;28;20196;-81
2022/07/10 03:18:30;;;;;;;2.35;0.68;;;;;20.80;102547.00;;;;5029002;28;20196;-81
2022/07/10 03:20:59;;;;;;;2.15;0.80;;;;;20.80;102544.00;;;;5047896;28;20253;-80
2022/07/10 03:23:26;;;;;;;2.08;0.73;;;;;20.80;102550.00;;;;5049217;28;20200;-81
2022/07/10 03:25:54;;;;;;;2.25;0.50;;;;;20.80;102553.00;;;;5043735;28;20234;-81
2022/07/10 03:28:21;;;;;;;2.35;0.80;;;;;20.80;102551.00;;;;5028586;28;20689;-81
2022/07/10 03:30:48;;;;;;;1.13;0.50;;;;;20.80;102547.00;;;;5029277;28;20203;-81
2022/07/10 03:33:16;;;;;;;3.42;0.60;;;;;20.90;102536.00;;;;5029734;28;20200;-81
2022/07/10 03:35:43;;;;;;;2.45;0.65;;;;;20.90;102540.00;;;;5034397;28;20203;-80
2022/07/10 03:38:11;;;;;;;1.98;0.70;;;;;20.90;102531.00;;;;5043780;28;20231;-80
2022/07/10 03:40:39;;;;;;;1.65;0.60;;;;;20.90;102536.00;;;;5039386;28;20215;-81
2022/07/10 03:43:06;;;;;;;1.92;0.70;;;;;20.90;102524.00;;;;5045264;28;20209;-80
2022/07/10 03:45:34;;;;;;;2.95;0.73;;;;;20.90;102532.00;;;;5028568;28;20208;-81
2022/07/10 03:48:01;;;;;;;2.13;0.80;;;;;21.00;102526.00;;;;5028764;28;20320;-80
2022/07/10 03:50:28;;;;;;;2.22;0.80;;;;;21.00;102533.00;;;;5028980;28;20196;-80
2022/07/10 03:52:55;;;;;;;2.50;0.50;;;;;21.00;102522.00;;;;5029280;28;20196;-81
2022/07/10 03:55:24;;;;;;;1.88;0.70;;;;;21.00;102527.00;;;;5027994;28;20196;-81
2022/07/10 03:57:53;;;;;;;1.67;0.90;;;;;21.00;102516.00;;;;5028187;28;20667;-81
2022/07/10 04:00:22;;;;;;;3.63;0.90;;;;;21.10;102529.00;;;;5028151;28;20196;-81
2022/07/10 04:02:55;;;;;;;2.92;0.90;;;;;21.10;102524.00;;;;5028780;28;20219;-80
2022/07/10 04:05:22;;;;;;;1.88;0.70;;;;;21.10;102528.00;;;;5028350;28;20238;-80
2022/07/10 04:07:49;;;;;;;3.38;0.63;;;;;21.10;102521.00;;;;5028898;28;20666;-80
2022/07/10 04:10:17;;;;;;;1.80;0.50;;;;;21.10;102517.00;;;;5033955;28;20242;-81
2022/07/10 04:12:45;;;;;;;1.75;0.80;;;;;21.10;102506.00;;;;5028170;28;20204;-80
2022/07/10 04:15:13;;;;;;;2.83;0.80;;;;;21.20;102520.00;;;;5028990;28;20196;-80
2022/07/10 04:17:40;;;;;;;2.50;0.70;;;;;21.20;102520.00;;;;5028568;28;20200;-81
2022/07/10 04:20:08;;;;;;;2.47;0.65;;;;;21.20;102520.00;;;;5027951;28;20781;-80
2022/07/10 04:22:36;;;;;;;2.05;0.60;;;;;21.20;102516.00;;;;5028169;28;20193;-81
2022/07/10 04:25:04;;;;;;;1.75;0.50;;;;;21.30;102515.00;;;;5028511;28;20189;-80
2022/07/10 04:27:31;;;;;;;1.15;0.70;;;;;21.30;102522.00;;;;5035570;28;20212;-80
2022/07/10 04:30:00;;;;;;;2.47;0.80;;;;;21.30;102526.00;;;;5048234;28;20238;-81
2022/07/10 04:32:28;;;;;;;2.80;1.05;;;;;21.30;102523.00;;;;5048042;28;20650;-80
2022/07/10 04:34:56;;;;;;;1.58;0.63;;;;;21.30;102518.00;;;;5048102;28;20200;-80
2022/07/10 04:37:23;;;;;;;2.22;0.93;;;;;21.40;102515.00;;;;5031681;28;20212;-81
2022/07/10 04:39:50;;;;;;;3.17;0.80;;;;;21.40;102513.00;;;;5038715;28;20220;-81
2022/07/10 04:42:17;;;;;;;4.57;1.33;;;;;21.40;102515.00;;;;5033040;28;20207;-80
2022/07/10 04:44:45;;;;;;;4.13;1.15;;;;;21.40;102522.00;;;;5037228;28;20566;-81
2022/07/10 04:47:13;;;;;;;3.47;1.40;;;;;21.40;102523.00;;;;5047882;28;20700;-81
2022/07/10 04:49:40;;;;;;;3.63;1.08;;;;;21.50;102526.00;;;;5041237;28;20216;-81
2022/07/10 04:52:08;;;;;;;4.03;1.17;;;;;21.50;102522.00;;;;5027430;28;20196;-81
2022/07/10 04:54:35;;;;;;;2.42;1.42;;;;;21.60;102519.00;;;;5028004;28;20239;-81
2022/07/10 04:57:04;;;;;;;6.90;2.25;;;;;21.60;102515.00;;;;5027392;28;20235;-81
2022/07/10 04:59:32;;;;;;;3.60;1.92;;;;;21.60;102518.00;;;;5037472;28;20576;-81
2022/07/10 05:01:59;;;;;;;2.78;1.30;;;;;21.70;102519.00;;;;5029939;28;20215;-81
2022/07/10 05:04:28;;;;;;;2.80;1.52;;;;;21.70;102514.00;;;;5027970;28;20195;-81
2022/07/10 05:06:55;;;;;;;4.85;1.40;;;;;21.80;102520.00;;;;5027904;28;20588;-81
2022/07/10 05:09:22;;;;;;;3.55;1.15;;;;;21.80;102525.00;;;;5039221;28;20713;-81
2022/07/10 05:11:49;;;;;;;4.55;1.30;;;;;21.80;102527.00;;;;5051061;28;20200;-80
2022/07/10 05:14:17;;;;;;;2.13;1.02;;;;;21.90;102535.00;;;;5048858;28;20628;-80
2022/07/10 05:16:44;;;;;;;2.17;1.05;;;;;21.90;102542.00;;;;5039932;28;20219;-81
2022/07/10 05:19:11;;;;;;;2.88;0.95;;;;;21.90;102529.00;;;;5042978;28;20666;-80
2022/07/10 05:21:40;;;;;;;6.72;0.93;;;;;21.90;102532.00;;;;5046936;28;20203;-81
2022/07/10 05:24:07;;;;;;;1.08;0.45;;;;;22.00;102533.00;;;;5030836;28;20197;-80
2022/07/10 05:26:36;;;;;;;2.90;0.63;;;;;22.00;102533.00;;;;5030606;28;20208;-80
2022/07/10 05:29:03;;;;;;;2.35;0.60;;;;;22.00;102537.00;;;;5030404;28;20220;-80
2022/07/10 05:31:30;;;;;;;2.30;0.70;;;;;22.00;102537.00;;;;5043894;28;20199;-80
2022/07/10 05:33:58;;;;;;;2.13;0.80;;;;;22.00;102533.00;;;;5045637;28;20192;-81
2022/07/10 05:36:25;;;;;;;1.83;0.82;;;;;22.10;102535.00;;;;5036773;28;20207;-81
2022/07/10 05:38:54;;;;;;;2.05;0.77;;;;;22.10;102534.00;;;;5030066;28;20250;-80
2022/07/10 05:41:21;;;;;;;3.72;0.40;;;;;22.10;102531.00;;;;5036770;28;20207;-81
2022/07/10 05:43:48;;;;;;;1.23;0.52;;;;;22.10;102530.00;;;;5050691;28;20585;-80
2022/07/10 05:46:15;;;;;;;2.40;0.65;;;;;22.10;102527.00;;;;5049558;28;20282;-81
2022/07/10 05:48:43;;;;;;;1.13;0.40;;;;;22.10;102520.00;;;;5050262;28;20192;-80
2022/07/10 05:51:10;;;;;;;3.08;0.40;;;;;22.20;102530.00;;;;5030752;28;20207;-81
2022/07/10 05:53:38;;;;;;;1.98;0.68;;;;;22.20;102533.00;;;;5031549;28;20682;-81
2022/07/10 05:56:07;;;;;;;3.85;0.75;;;;;22.20;102521.00;;;;5030423;28;20263;-81
2022/07/10 05:58:34;;;;;;;3.00;0.70;;;;;22.20;102526.00;;;;5029350;28;20208;-80
2022/07/10 06:01:02;;;;;;;2.22;0.80;;;;;22.30;102524.00;;;;5029474;28;20201;-81
2022/07/10 06:03:29;;;;;;;4.28;0.60;;;;;22.30;102527.00;;;;5030959;28;20196;-82
2022/07/10 06:05:57;;;;;;;4.28;1.05;;;;;22.40;102523.00;;;;5030038;28;20208;-81
2022/07/10 06:08:24;;;;;;;4.65;0.98;;;;;22.40;102526.00;;;;5029772;28;20258;-81
2022/07/10 06:10:51;;;;;;;3.92;0.70;;;;;22.50;102525.00;;;;5045379;28;20224;-81
2022/07/10 06:13:20;;;;;;;2.20;0.60;;;;;22.50;102526.00;;;;5037415;28;20203;-81
2022/07/10 06:15:48;;;;;;;4.38;1.10;;;;;22.50;102527.00;;;;5044775;28;20337;-81
2022/07/10 06:18:16;;;;;;;3.40;0.93;;;;;22.50;102530.00;;;;5049384;28;20215;-81
2022/07/10 06:20:43;;;;;;;2.50;0.82;;;;;22.60;102537.00;;;;5046732;28;20200;-82
2022/07/10 06:23:10;;;;;;;2.97;0.63;;;;;22.60;102527.00;;;;5049311;28;20654;-81
2022/07/10 06:25:38;;;;;;;2.92;0.57;;;;;22.60;102521.00;;;;5049352;28;20204;-81
2022/07/10 06:28:05;;;;;;;2.95;0.55;;;;;22.60;102536.00;;;;5029914;28;20204;-81
2022/07/10 06:30:34;;;;;;;2.65;0.75;;;;;22.60;102537.00;;;;5029687;28;20800;-82
2022/07/10 06:33:01;;;;;;;4.03;0.80;;;;;22.70;102539.00;;;;5029443;28;20215;-81
2022/07/10 06:35:28;;;;;;;1.63;0.70;;;;;22.70;102531.00;;;;5031279;28;20212;-81
2022/07/10 06:37:56;;;;;;;2.20;0.52;;;;;22.80;102534.00;;;;5029654;28;20199;-79
2022/07/10 06:40:23;;;;;;;5.85;0.88;;;;;22.80;102534.00;;;;5028992;28;20205;-80
2022/07/10 06:42:51;;;;;;;1.20;0.43;;;;;22.80;102533.00;;;;5030989;28;20572;-79
2022/07/10 06:45:18;;;;;;;2.35;0.65;;;;;22.80;102532.00;;;;5030337;28;20219;-82
2022/07/10 06:47:59;;;;;;;2.80;0.68;;;;;22.90;102538.00;;;;5033012;28;20204;-80
2022/07/10 06:50:30;;;;;;;2.67;0.70;;;;;22.90;102532.00;;;;5029311;28;20698;-80
2022/07/10 06:52:58;;;;;;;3.00;1.10;;;;;22.90;102520.00;;;;5029377;28;20200;-80
2022/07/10 06:55:25;;;;;;;3.03;0.80;;;;;23.00;102520.00;;;;5028729;28;20247;-80
2022/07/10 06:57:53;;;;;;;3.80;1.00;;;;;23.00;102527.00;;;;5029512;28;20196;-80
2022/07/10 07:00:20;;;;;;;2.95;0.68;;;;;23.00;102534.00;;;;5033114;28;20203;-80
2022/07/10 07:02:49;;;;;;;2.10;0.60;;;;;23.10;102532.00;;;;5047857;28;20236;-80
2022/07/10 07:05:16;;;;;;;1.45;0.55;;;;;23.10;102533.00;;;;5047824;28;20199;-80
2022/07/10 07:07:44;;;;;;;5.03;0.88;;;;;23.10;102543.00;;;;5049296;28;20202;-80
2022/07/10 07:10:11;;;;;;;4.22;1.05;;;;;23.10;102534.00;;;;5048852;28;20228;-80
2022/07/10 07:12:39;;;;;;;4.00;0.80;;;;;23.10;102534.00;;;;5049458;28;20199;-81
2022/07/10 07:15:08;;;;;;;5.07;1.05;;;;;23.10;102533.00;;;;5029188;28;20204;-80
2022/07/10 07:17:56;;;;;;;2.88;0.45;;;;;23.10;102536.00;;;;5031011;28;20196;-81
2022/07/10 07:23:13;;;;;;;5.53;1.85;;;;;23.20;102541.00;;;;5011292;28;20755;-80
2022/07/10 07:25:46;;;;;;;0.80;0.50;;;;;23.20;102544.00;;;;5029177;28;20196;-82
2022/07/10 07:28:15;;;;;;;6.38;1.20;;;;;23.20;102535.00;;;;5033113;28;20188;-81
2022/07/10 07:30:42;;;;;;;1.90;0.50;;;;;23.30;102536.00;;;;5048664;28;20235;-80
2022/07/10 07:33:10;;;;;;;1.65;0.57;;;;;23.30;102535.00;;;;5048700;28;20204;-81
2022/07/10 07:35:40;;;;;;;2.58;0.68;;;;;23.30;102537.00;;;;5047305;28;20211;-79
2022/07/10 07:38:07;;;;;;;2.22;0.70;;;;;23.30;102540.00;;;;5049109;28;20204;-80
2022/07/10 07:40:37;;;;;;;2.25;0.80;;;;;23.30;102532.00;;;;5049371;28;20207;-81
2022/07/10 07:43:05;;;;;;;2.08;0.73;;;;;23.40;102542.00;;;;5028032;28;20200;-80
2022/07/10 07:45:32;;;;;;;2.22;1.13;;;;;23.40;102544.00;;;;5027857;28;20192;-80
2022/07/10 07:48:01;;;;;;;1.40;1.05;;;;;23.40;102538.00;;;;5027708;28;20929;-81
2022/07/10 07:50:31;;;;;;;3.50;1.20;;;;;23.40;102534.00;;;;5041449;28;20227;-80
2022/07/10 07:53:01;;;;;;;2.05;0.60;;;;;23.50;102535.00;;;;5028993;28;20766;-81
2022/07/10 07:55:29;;;;;;;2.00;1.00;;;;;23.50;102538.00;;;;5028656;28;20843;-81
2022/07/10 07:57:58;;;;;;;2.70;0.70;;;;;23.50;102533.00;;;;5028533;28;20196;-81
2022/07/10 08:00:27;;;;;;;0.95;0.55;;;;;23.50;102535.00;;;;5028227;28;20235;-81
2022/07/10 08:02:56;;;;;;;1.95;0.65;;;;;23.60;102533.00;;;;5028843;28;20205;-81
2022/07/10 08:05:24;;;;;;;1.38;0.93;;;;;23.60;102542.00;;;;5045668;28;20207;-81
2022/07/10 08:07:53;;;;;;;3.70;1.00;;;;;23.60;102543.00;;;;5042059;28;20207;-81
2022/07/10 08:10:23;;;;;;;3.83;1.05;;;;;23.60;102549.00;;;;5028610;28;20234;-80
2022/07/10 08:12:51;;;;;;;2.08;0.60;;;;;23.70;102552.00;;;;5036018;28;20200;-81
2022/07/10 08:15:21;;;;;;;2.20;1.00;;;;;23.70;102549.00;;;;5048395;28;20203;-81
2022/07/10 08:17:49;;;;;;;1.92;0.93;;;;;23.70;102546.00;;;;5048297;28;20253;-80
2022/07/10 08:20:17;;;;;;;1.77;0.80;;;;;23.70;102538.00;;;;5048393;28;20207;-81
2022/07/10 08:22:44;;;;;;;2.83;0.60;;;;;23.70;102548.00;;;;5047950;28;20196;-81
2022/07/10 08:25:12;;;;;;;3.65;1.02;;;;;23.60;102542.00;;;;5043825;28;20200;-81
2022/07/10 08:27:41;;;;;;;1.85;0.80;;;;;23.60;102550.00;;;;5027910;28;20207;-80
2022/07/10 08:30:09;;;;;;;2.53;1.00;;;;;23.60;102542.00;;;;5027889;28;20220;-81
2022/07/10 08:32:37;;;;;;;2.83;0.77;;;;;23.60;102538.00;;;;5027737;28;20195;-80
2022/07/10 08:35:06;;;;;;;1.40;0.73;;;;;23.60;102541.00;;;;5030168;28;20581;-81
2022/07/10 08:37:38;;;;;;;1.38;0.90;;;;;23.60;102536.00;;;;5028777;28;20204;-80
2022/07/10 08:40:08;;;;;;;1.38;0.70;;;;;23.60;102545.00;;;;5027987;28;20212;-81
2022/07/10 08:42:35;;;;;;;4.50;1.45;;;;;23.60;102538.00;;;;5040257;28;20203;-80
2022/07/10 08:45:04;;;;;;;1.00;0.70;;;;;23.60;102539.00;;;;5052109;28;20578;-80
2022/07/10 08:47:34;;;;;;;6.57;1.25;;;;;23.70;102540.00;;;;5052032;28;20196;-80
2022/07/10 08:50:02;;;;;;;1.75;1.00;;;;;23.70;102544.00;;;;5050563;28;20223;-80
2022/07/10 08:52:34;;;;;;;1.88;0.70;;;;;23.70;102535.00;;;;5052287;28;20681;-80
2022/07/10 08:55:01;;;;;;;1.08;0.80;;;;;23.70;102541.00;;;;5052333;28;20562;-79
2022/07/10 08:57:31;;;;;;;1.13;0.80;;;;;23.80;102538.00;;;;5050559;28;20227;-80
2022/07/10 08:59:59;;;;;;;1.58;0.82;;;;;23.90;102534.00;;;;5050307;28;20200;-81
2022/07/10 09:02:27;;;;;;;2.63;0.70;;;;;23.90;102531.00;;;;5040365;28;20292;-80
2022/07/10 09:04:55;;;;;;;2.60;0.77;;;;;24.00;102533.00;;;;5031512;28;20682;-80
2022/07/10 09:07:24;;;;;;;1.35;0.90;;;;;24.10;102522.00;;;;5031370;28;20193;-81
2022/07/10 09:09:55;;;;;;;1.45;0.85;;;;;24.20;102525.00;;;;5032283;28;20189;-80
2022/07/10 09:12:23;;;;;;;5.32;0.98;;;;;24.30;102522.00;;;;5031466;28;20220;-81
2022/07/10 09:14:51;;;;;;;3.05;0.60;;;;;24.40;102526.00;;;;5031976;28;20200;-81
2022/07/10 09:17:19;;;;;;;2.15;0.68;;;;;24.50;102527.00;;;;5044643;28;20582;-81
2022/07/10 09:19:48;;;;;;;2.20;1.13;;;;;24.50;102527.00;;;;5050996;28;20200;-81
2022/07/10 09:22:15;;;;;;;1.88;0.90;;;;;24.60;102521.00;;;;5051371;28;20576;-81
2022/07/10 09:24:44;;;;;;;1.33;0.88;;;;;24.60;102520.00;;;;5051489;28;20207;-81
2022/07/10 09:27:14;;;;;;;0.90;0.60;;;;;24.70;102515.00;;;;5051563;28;20192;-81
2022/07/10 09:29:51;;;;;;;1.65;1.00;;;;;24.70;102520.00;;;;5049392;28;20199;-81
2022/07/10 09:32:19;;;;;;;2.45;0.80;;;;;24.80;102520.00;;;;5045332;28;20701;-81
2022/07/10 09:34:49;;;;;;;2.40;0.90;;;;;24.90;102521.00;;;;5033929;28;20199;-81
2022/07/10 09:37:21;;;;;;;1.55;0.82;;;;;24.90;102518.00;;;;5043966;28;20215;-81
2022/07/10 09:39:54;;;;;;;1.42;0.88;;;;;24.90;102515.00;;;;5051360;28;20227;-81
2022/07/10 09:42:32;;;;;;;1.40;1.00;;;;;24.90;102518.00;;;;5036062;28;20646;-81
2022/07/10 09:45:19;;;;;;;1.48;0.82;;;;;24.90;102507.00;;;;5031070;28;20270;-80
2022/07/10 09:48:00;;;;;;;4.57;0.93;;;;;25.00;102508.00;;;;5031005;28;20200;-80
2022/07/10 09:50:30;;;;;;;2.78;1.10;;;;;25.00;102497.00;;;;5030416;28;20231;-81
2022/07/10 09:52:59;;;;;;;1.48;0.90;;;;;25.10;102497.00;;;;5031365;28;20204;-81
2022/07/10 09:55:29;;;;;;;2.15;0.85;;;;;25.10;102505.00;;;;5029884;28;20246;-81
2022/07/10 09:57:58;;;;;;;1.30;0.70;;;;;25.10;102498.00;;;;5030956;28;20679;-81
2022/07/10 10:00:27;;;;;;;1.13;0.57;;;;;25.10;102496.00;;;;5030008;28;20196;-81
2022/07/10 10:02:57;;;;;;;4.55;0.82;;;;;25.20;102503.00;;;;5030552;28;20212;-81
2022/07/10 10:05:37;;;;;;;1.95;0.60;;;;;25.20;102503.00;;;;5031171;28;20204;-81
2022/07/10 10:08:12;;;;;;;1.98;1.00;;;;;25.30;102509.00;;;;5032182;28;20215;-81
2022/07/10 10:10:45;;;;;;;1.95;0.95;;;;;25.30;102491.00;;;;5030664;28;20278;-80
2022/07/10 10:13:16;;;;;;;1.83;0.90;;;;;25.40;102503.00;;;;5030830;28;20208;-81
2022/07/10 10:15:44;;;;;;;0.57;0.50;;;;;25.40;102493.00;;;;5030743;28;20204;-81
2022/07/10 10:18:13;;;;;;;1.20;0.70;;;;;25.40;102494.00;;;;5031905;28;21051;-81
2022/07/10 10:20:44;;;;;;;1.48;0.70;;;;;25.50;102501.00;;;;5030478;28;20196;-81
2022/07/10 10:23:13;;;;;;;1.50;0.60;;;;;25.50;102502.00;;;;5030242;28;20214;-81
2022/07/10 10:25:41;;;;;;;3.63;0.80;;;;;25.50;102500.00;;;;5046345;28;20617;-81
2022/07/10 10:28:11;;;;;;;0.90;0.47;;;;;25.50;102501.00;;;;5050061;28;20299;-81
2022/07/10 10:30:40;;;;;;;1.90;0.90;;;;;25.60;102504.00;;;;5047918;28;20219;-81
2022/07/10 10:33:42;;;;;;;1.98;0.85;;;;;25.50;102502.00;;;;5042163;28;20197;-81
2022/07/10 10:36:12;;;;;;;0.82;0.63;;;;;25.60;102498.00;;;;5035788;28;20210;-81
2022/07/10 10:39:10;;;;;;;2.58;0.90;;;;;25.50;102497.00;;;;5032217;28;20216;-80
2022/07/10 10:41:42;;;;;;;0.93;0.70;;;;;25.60;102494.00;;;;5031011;28;20653;-81
2022/07/10 10:44:35;;;;;;;1.75;0.93;;;;;25.60;102492.00;;;;5049749;28;20199;-80
2022/07/10 10:47:09;;;;;;;1.08;0.70;;;;;25.70;102482.00;;;;5032092;28;20658;-81
2022/07/10 10:49:53;;;;;;;2.40;1.00;;;;;25.70;102489.00;;;;5049718;28;20203;-81
2022/07/10 10:52:24;;;;;;;3.85;1.08;;;;;25.80;102488.00;;;;5049843;28;20627;-81
2022/07/10 10:55:15;;;;;;;1.88;0.90;;;;;25.80;102488.00;;;;5049990;28;21113;-81
2022/07/10 10:57:47;;;;;;;1.00;0.90;;;;;25.90;102494.00;;;;5029780;28;20596;-82
2022/07/10 11:00:30;;;;;;;1.08;0.90;;;;;25.90;102492.00;;;;5047532;28;20192;-82
2022/07/10 11:03:14;;;;;;;0.95;0.70;;;;;25.80;102493.00;;;;5047747;28;20239;-81
2022/07/10 11:05:43;;;;;;;2.17;1.00;;;;;25.90;102497.00;;;;5049529;28;20281;-82
2022/07/10 11:08:12;;;;;;;1.08;0.50;;;;;25.90;102497.00;;;;5044970;28;20241;-81
2022/07/10 11:10:41;;;;;;;2.08;0.88;;;;;25.90;102492.00;;;;5029389;28;20588;-81
2022/07/10 11:13:10;;;;;;;0.85;0.50;;;;;25.80;102495.00;;;;5029536;28;21074;-81
2022/07/10 11:15:39;;;;;;;0.73;0.50;;;;;25.80;102491.00;;;;5030049;28;20204;-81
2022/07/10 11:18:07;;;;;;;2.15;0.60;;;;;25.80;102489.00;;;;5029142;28;20295;-80
2022/07/10 11:20:36;;;;;;;0.70;0.60;;;;;25.80;102495.00;;;;5029944;28;20211;-81
2022/07/10 11:23:35;;;;;;;2.88;0.70;;;;;25.60;102492.00;;;;5028501;28;20208;-81
2022/07/10 11:26:09;;;;;;;1.02;0.60;;;;;25.70;102487.00;;;;5028773;28;20232;-80
2022/07/10 11:28:50;;;;;;;2.75;0.70;;;;;25.70;102493.00;;;;5029980;28;20239;-80
2022/07/10 11:31:17;;;;;;;1.60;0.68;;;;;25.70;102485.00;;;;5029373;28;20224;-81
2022/07/10 11:33:47;;;;;;;1.05;0.60;;;;;25.80;102486.00;;;;5029376;28;20219;-81
2022/07/10 11:36:17;;;;;;;2.17;0.55;;;;;25.80;102483.00;;;;5035513;28;20661;-81
2022/07/10 11:38:46;;;;;;;1.52;0.68;;;;;25.80;102483.00;;;;5037643;28;20216;-81
2022/07/10 11:41:18;;;;;;;1.20;0.50;;;;;25.80;102485.00;;;;5034131;28;20614;-81
2022/07/10 11:43:50;;;;;;;1.25;0.45;;;;;25.80;102485.00;;;;5041502;28;20655;-81
2022/07/10 11:46:18;;;;;;;0.52;0.52;;;;;25.90;102481.00;;;;5028929;28;20203;-81
2022/07/10 11:48:46;;;;;;;1.05;0.80;;;;;25.90;102481.00;;;;5028346;28;20208;-81
2022/07/10 11:51:22;;;;;;;1.98;0.88;;;;;25.90;102481.00;;;;5029008;28;20232;-81
2022/07/10 11:54:04;;;;;;;3.20;0.90;;;;;25.90;102486.00;;;;5046543;28;20199;-81
2022/07/10 11:56:33;;;;;;;2.65;0.70;;;;;25.90;102485.00;;;;5047921;28;20282;-81
2022/07/10 11:59:02;;;;;;;1.75;0.93;;;;;26.00;102483.00;;;;5047834;28;20199;-81
2022/07/10 12:01:32;;;;;;;1.92;0.50;;;;;25.90;102482.00;;;;5048376;28;20203;-81
2022/07/10 12:04:02;;;;;;;1.17;0.45;;;;;26.00;102473.00;;;;5044739;28;20253;-82
2022/07/10 12:06:30;;;;;;;1.40;0.60;;;;;26.00;102467.00;;;;5035085;28;20212;-80
2022/07/10 12:09:03;;;;;;;1.45;0.60;;;;;26.10;102475.00;;;;5028026;28;20196;-80
2022/07/10 12:11:31;;;;;;;1.33;0.65;;;;;26.10;102462.00;;;;5027627;28;20232;-80
2022/07/10 12:14:11;;;;;;;1.52;0.82;;;;;26.10;102465.00;;;;5028030;28;20207;-80
2022/07/10 12:16:39;;;;;;;1.75;0.40;;;;;26.20;102461.00;;;;5030148;28;20224;-81
2022/07/10 12:19:08;;;;;;;2.10;0.50;;;;;26.30;102464.00;;;;5026970;28;20212;-80
2022/07/10 12:21:36;;;;;;;1.60;0.50;;;;;26.40;102465.00;;;;5028268;28;20200;-80